Terminal Aerodrome Forecast
Issued by NWS Pittsburgh, PA

Current Version | Previous Version | Text Only | Print | Product List | Glossary Off
Versions: 1 2 3 4 5 6 7 8 9 10 11 12 13 14 15 16 17 18 19 20 21 22 23 24 25 26 27 28 29

000
FTUS41 KPBZ 182058 AAA
TAFPIT
TAF AMD
KPIT 182058Z 1821/1924 27009G18KT P6SM FEW050
     FM190000 28009KT P6SM FEW050
     FM190300 28004KT P6SM SCT025
     FM191800 25009KT P6SM VCTS BKN050CB=

USA.gov is the U.S. government's official web portal to all federal, state and local government web resources and services.